Squad war stats
Faction Empire
Rank 1071
TrueSkill™ 28,142
Reputation 18,395
Wars 275
Wins 86
Draws 4
Losses 185
Uplinks captured 7,079
Uplinks saved 2,034
Last updated 1 day ago
Mu 28.205
Sigma 0.018
Last War 5d
Current War none
Battle history
Date Opp. skill Opponent Result Score Opp. score Skill result Skill before Mu before Sigma before
2018-12-06 96% crazycommanders WIN 35 30 +1 28141 28.204 0.018
2018-12-02 96% WarLords231 LOSS 18 45 -1 28142 28.205 0.018
2018-11-19 101% РУССКИЕ_ВМЕСТЕ LOSS 3 45 0 28142 28.205 0.018
2018-11-16 101% Active_Group LOSS 23 42 0 28142 28.205 0.018
2018-11-12 100% frenchterminator LOSS 43 45 +1 28141 28.205 0.018
2018-11-08 95% Rebeldes_BR_2.0 LOSS 42 45 -1 28142 28.206 0.018
2018-11-06 101% BarefootPhoenix LOSS 13 45 0 28142 28.206 0.018
2018-11-04 100% EliteGoldSquad LOSS 41 45 0 28142 28.207 0.018
2018-11-02 104% JediTempleBlue LOSS 5 45 0 28142 28.207 0.018
2018-10-30 106% Marauders-Delta LOSS 9 45 0 28142 28.207 0.018
2018-10-27 100% MattsRebellion LOSS 30 43 0 28142 28.207 0.018
2018-10-25 99% Austria.ATrupp LOSS 16 41 0 28142 28.207 0.019
2018-10-20 98% RUSSIA LOSS 15 45 0 28142 28.207 0.019
2018-10-13 103% RUS-ВИТЯЗИacadem LOSS 9 45 0 28142 28.207 0.019
2018-10-09 100% Regulators76 LOSS 21 45 -10 28152 28.354 0.058
2018-10-06 103% Solo'sRenagades WIN 45 44 +748 27404 27.981 0.165
2018-10-04 109% Elite_Champs LOSS 6 45 0 27404 27.981 0.165
2018-09-30 104% Skyfire LOSS 25 45 +10 27394 27.984 0.169
2018-09-28 104% _DHARMA_ LOSS 37 45 +64 27330 28.017 0.196
2018-09-25 99% UnitedAlliance LOSS 37 42 -3 27333 28.085 0.215
2018-09-23 101% TheRebelAcadamy LOSS 8 33 +2 27331 28.088 0.216
2018-09-20 105% AmericaSur LOSS 7 45 +65 27266 28.119 0.244
2018-09-18 87% Japan☆Force™ WIN 42 40 +28 27238 28.101 0.247
2018-09-16 97% Rebeltransfer2 LOSS 41 44 -45 27283 28.222 0.268
2018-09-12 106% windows-revenge LOSS 23 36 0 27283 28.222 0.268
2018-08-30 0% Madine's_Legacy LOSS 23 41 0 28193 28.222 0.008
2018-08-25 100% BlueRenegade LOSS 35 41 0 28193 28.222 0.008
2018-08-23 100% China-义军活跃斗士 LOSS 11 45 0 28193 28.222 0.008
2018-08-21 101% Skyfire LOSS 6 45 0 28193 28.222 0.008
2018-08-17 100% WeDontBuyGems LOSS 25 34 -66 28259 28.399 0.040
2018-08-11 109% _NAMELESS_ LOSS 26 45 0 28259 28.399 0.040
2018-08-08 97% Rus-Squadron LOSS 6 45 -1 28260 28.400 0.040
2018-08-05 99% Quebec_rebelle_a LOSS 14 45 -6 28266 28.410 0.041
2018-07-30 98% Aus.Rebels LOSS 6 45 -2 28268 28.413 0.041
2018-07-27 101% Ackbar's_Fleet LOSS 5 45 +6 28262 28.415 0.044
2018-07-25 101% JeDi LOSS 35 42 +8 28254 28.418 0.047
2018-07-20 100% USAKnightsReborn LOSS 16 45 +2 28252 28.423 0.049
2018-07-18 100% Oneinchpunch2017 LOSS 34 40 0 28252 28.430 0.051
2018-07-15 89% Legacy-of-Light WIN 37 22 +1 28251 28.429 0.051
2018-07-13 100% TrödlerAbraham WIN 42 35 +40 28211 28.419 0.059
2018-07-08 101% Star-Crushers WIN 44 26 +126 28085 28.379 0.084
2018-07-06 101% JediMindLick DRAW 45 45 0 28085 28.379 0.084
2018-07-03 107% Spanish_Rebels_2 LOSS 2 45 0 28085 28.379 0.084
2018-07-01 102% Ackbar's_Fleet LOSS 9 45 +44 28041 28.408 0.105
2018-06-26 102% Iron_Rebels_Alph LOSS 0 45 +70 27971 28.461 0.140
2018-06-24 106% SpaceBarons LOSS 2 41 0 27971 28.461 0.140
2018-06-16 100% RebelsLounge LOSS 14 45 0 28461 28.461 0.000
2018-06-12 100% BattleRaxChaos LOSS 8 45 0 28461 28.461 0.000
2018-06-10 97% TheRebelAcadamy LOSS 19 45 0 28461 28.461 0.000
2018-06-03 103% BattleRaxFury LOSS 34 43 0 28461 28.461 0.000
2018-06-01 103% Ackbar_Awakens LOSS 6 45 0 28461 28.461 0.000
2018-05-30 100% Oneinchpunch2017 LOSS 33 37 0 28461 28.461 0.000
2018-05-26 100% CursedRebels WIN 36 30 +9 28452 28.452 0.000
2018-05-23 92% HUN_Team LOSS 42 45 0 28452 28.452 0.000
2018-05-21 106% Jedi-Jawas LOSS 1 45 0 28452 28.452 0.000
2018-05-19 100% Tython WIN 41 39 0 28452 28.452 0.000
2018-05-14 100% PiratesLife4me DRAW 45 45 0 28452 28.452 0.000
2018-05-09 105% PartylikePorkins LOSS 12 45 0 28452 28.452 0.000
2018-05-07 99% W.A.R.Academy LOSS 14 45 0 28452 28.452 0.000
2018-05-05 102% havoc_rebellion LOSS 8 45 0 28452 28.452 0.000
2018-05-02 99% ANDALUCES LOSS 15 45 0 28452 28.452 0.000
2018-04-30 95% K-Re LOSS 30 44 0 28452 28.452 0.000
2018-04-28 100% N2K WIN 41 29 +3 28449 28.450 0.000
2018-04-26 100% MegaDroids WIN 42 36 +15 28434 28.435 0.000
2018-04-24 102% Vaders_Reapers LOSS 13 45 0 28434 28.435 0.000
2018-04-21 100% Chewie_fan WIN 44 11 0 28434 28.435 0.000
2018-04-19 99% REBELRESISTANCE LOSS 18 43 0 28434 28.435 0.000
2018-04-16 100% Badger-Legion WIN 40 19 0 28434 28.435 0.000
2018-04-14 100% NERFHERDERS LOSS 26 43 0 28434 28.435 0.000
2018-04-12 80% Han's_Blasters WIN 45 11 0 28434 28.435 0.000
2018-04-10 101% ITALIANI LOSS 10 45 0 28434 28.435 0.000
2018-04-08 98% French-Rebel2 WIN 45 23 0 28434 28.435 0.000
2018-04-06 100% Badger-Legion WIN 44 41 0 28434 28.435 0.000
2018-04-04 103% WarriorsBG LOSS 2 45 0 28434 28.435 0.000
2018-04-02 101% PiratesLife4me LOSS 20 45 0 28434 28.435 0.000
2018-03-31 102% Rey's_Raiders LOSS 43 44 0 28434 28.435 0.000
2018-03-29 102% KashyyykRebelion WIN 35 23 +11 28423 28.424 0.000
2018-03-27 100% HugeEuge WIN 45 23 0 28423 28.424 0.000
2018-03-25 101% RUS-ВИТЯЗИacadem LOSS 23 45 0 28423 28.424 0.000
2018-03-22 101% GreeceWarriors WIN 45 12 +63 28360 28.362 0.001
2018-03-20 96% magyar-ellenallo WIN 45 7 0 28360 28.362 0.001
2018-03-18 99% Rapid-Fire LOSS 34 45 0 28360 28.362 0.001
2018-03-16 99% Gouda-Prime LOSS 41 44 0 28360 28.362 0.001
2018-03-14 91% Jedireborn LOSS 15 43 0 28360 28.362 0.001
2018-03-10 100% HugeEuge LOSS 25 35 0 28360 28.362 0.001
2018-03-08 100% Canadian-rebels WIN 43 30 0 28360 28.362 0.001
2018-03-06 101% ObiTwo LOSS 30 38 0 28360 28.362 0.001
2018-03-03 101% RodianRebels LOSS 25 33 0 28360 28.362 0.001
2018-03-01 97% SickandTwisted WIN 42 33 0 28360 28.362 0.001
2018-02-27 94% Ackbar'sAvengers WIN 45 43 0 28360 28.362 0.001
2018-02-24 101% Deutsche-Alphas WIN 37 28 +133 28227 28.230 0.001
2018-02-22 101% Delta_Force-Beta LOSS 34 43 0 28227 28.230 0.001
2018-02-20 101% DonateOrGetLost LOSS 24 44 0 28227 28.230 0.001
2018-02-17 101% KashyyykRebelion LOSS 39 42 0 28227 28.230 0.001
2018-02-15 101% XCS LOSS 21 41 0 28227 28.230 0.001
2018-02-13 101% Imperial-Slammer LOSS 29 34 0 28227 28.230 0.001
2018-02-10 99% AckbarSnackbar LOSS 30 45 -158 28385 28.389 0.001
2018-02-08 100% SmokingH2O LOSS 33 37 0 28385 28.389 0.001
2018-02-04 97% JediKnight-SW LOSS 41 45 0 28385 28.389 0.001
2018-02-02 93% FrenchFun2.0 LOSS 25 33 0 28385 28.389 0.001
2018-01-31 100% NO_MA'AM LOSS 32 45 0 28385 28.389 0.001
2018-01-29 95% Jah_di_Council LOSS 23 43 0 28385 28.389 0.001
2018-01-27 94% BODYCOUNT WIN 35 30 0 28385 28.389 0.001
2018-01-25 100% activeclan LOSS 27 41 0 28385 28.389 0.001
2018-01-23 98% LosPanchos WIN 43 38 0 28385 28.389 0.001
2018-01-20 105% Elite-Chaos LOSS 4 45 0 28385 28.389 0.001
2018-01-18 101% Teamz12345678 WIN 39 33 +146 28239 28.249 0.003
2018-01-15 102% 1st_ORDER2 LOSS 9 45 0 28239 28.249 0.003
2018-01-12 98% Hotrods LOSS 34 43 0 28239 28.249 0.003
2018-01-10 101% Ghost13-Squadron LOSS 31 35 0 28239 28.249 0.003
2018-01-08 102% Light-This-Force LOSS 22 43 0 28239 28.249 0.003
2018-01-06 99% Insulttoinjury LOSS 38 44 -230 28469 28.494 0.007
2018-01-03 104% SPAIN-REBELS LOSS 10 43 0 28469 28.494 0.007
2018-01-01 103% OzzieRebels LOSS 13 45 0 28469 28.494 0.007
2017-12-30 102% Snow-walkers LOSS 28 40 0 28469 28.494 0.007
2017-12-28 104% VadaNation LOSS 11 45 0 28469 28.494 0.007
2017-12-25 95% BRASIL(REBELDES) DRAW 34 34 0 28469 28.494 0.007
2017-12-22 103% NORWAY LOSS 8 45 0 28469 28.494 0.007
2017-12-18 96% JediMasters247 LOSS 29 36 -1 28470 28.495 0.007
2017-12-14 102% FrenchAlliance LOSS 3 42 0 28470 28.495 0.007
2017-12-12 101% TheGunslingers LOSS 11 45 0 28470 28.495 0.007
2017-12-10 105% Force_Unleashed LOSS 5 45 0 28470 28.495 0.007
2017-12-06 101% Force'sAllies2 LOSS 31 42 0 28470 28.495 0.007
2017-12-04 101% Active_Group LOSS 11 45 0 28470 28.495 0.007
2017-12-02 100% Rebel-Knights LOSS 26 37 0 28470 28.495 0.007
2017-11-29 103% LanuxClan LOSS 15 42 0 28470 28.495 0.007
2017-11-27 98% FrozenEmpire WIN 45 14 0 28470 28.495 0.007
2017-11-25 103% Canada.Edmonton LOSS 4 45 0 28470 28.495 0.007
2017-11-22 101% R2-dd LOSS 17 43 0 28470 28.495 0.007
2017-11-19 101% EscuadrónAzul LOSS 11 45 0 28470 28.495 0.007
2017-11-17 101% FrenchAlliance LOSS 8 43 0 28470 28.495 0.007
2017-11-15 100% CapeTownJedi WIN 36 22 0 28470 28.495 0.007
2017-11-13 101% Ship-of-Fools DRAW 45 45 0 28470 28.495 0.007
2017-11-10 102% TheMorningMob LOSS 6 45 0 28470 28.495 0.007
2017-11-07 102% Kenobi's_Command LOSS 20 42 0 28470 28.495 0.007
2017-11-04 99% The_Destroyers94 LOSS 29 40 -168 28638 28.689 0.015
2017-11-01 95% DONATIONS_HERE WIN 25 20 +1 28637 28.689 0.015
2017-10-30 100% NinjaEwoks WIN 43 15 +10 28627 28.680 0.015
2017-10-26 100% Rebel's4Life LOSS 16 45 0 28627 28.680 0.015
2017-10-24 100% worldvirus LOSS 28 38 0 28627 28.680 0.015
2017-10-19 99% ScruffySmugglers WIN 44 41 0 28627 28.680 0.015
2017-10-17 100% TheRogueSpartans LOSS 17 43 0 28627 28.680 0.015
2017-10-14 102% LandosLightsaber WIN 35 27 +532 28095 28.271 0.050
2017-10-12 100% Leo-und-Julius WIN 38 17 +2 28093 28.270 0.051
2017-10-10 100% TheScotchCantina LOSS 13 34 +16 28077 28.382 0.087
2017-10-08 105% Force-awakens LOSS 11 39 0 28077 28.382 0.087
2017-10-05 100% German|Rebels LOSS 11 45 0 28077 28.382 0.087
2017-10-03 89% FENIX_ESCUADRON LOSS 26 30 -28 28105 28.412 0.088
2017-09-12 115% PartylikeChewy LOSS 0 45 0 28105 28.412 0.088
2017-09-09 104% Blackwingrebels LOSS 4 42 0 28105 28.412 0.088
2017-09-07 87% Realteal WIN 33 21 +5 28100 28.408 0.088
2017-09-03 101% waldoville LOSS 7 45 0 28100 28.408 0.088
2017-08-30 102% BlackUnicorns LOSS 7 31 0 28100 28.408 0.088
2017-08-27 100% Michigan_Rebels LOSS 38 43 -37 28137 28.594 0.131
2017-08-25 104% Han's-watchman LOSS 3 45 0 28137 28.594 0.131
2017-08-20 104% RebelDonate LOSS 31 45 0 28137 28.594 0.131
2017-08-15 101% BabaYaga LOSS 38 45 +17 28120 28.609 0.140
2017-08-13 99% OBW.ELITE LOSS 38 45 +1 28119 28.636 0.148
2017-08-09 102% EscuadrónAzul LOSS 18 24 +34 28085 28.656 0.163
2017-08-07 100% Ks01skywalkwer LOSS 22 32 -132 28217 29.239 0.292
2017-07-30 101% SniperElite LOSS 6 33 +20 28687 29.273 0.167
2017-07-27 96% et.tu.Brute LOSS 22 33 0 28686 29.273 0.168
2017-07-25 102% Dark_Helmut LOSS 2 40 +1 28686 29.273 0.168
2017-07-22 100% Japan-skywalkers WIN 30 25 +308 28378 29.111 0.209
2017-07-20 102% Force_Unchained WIN 23 22 +528 27850 28.848 0.285
2017-07-17 104% Iron_Rebels_Elit LOSS 8 35 +7 27843 28.851 0.288
2017-07-13 102% ANDALUCES LOSS 15 45 +53 27790 28.906 0.319
2017-07-11 100% INDONESIA.E.R.W LOSS 20 33 +15 27775 29.026 0.357
2017-07-08 106% BattleRax LOSS 4 43 +5 27619 28.954 0.381
2017-07-05 94% 501St,Comandos WIN 42 5 +151 27624 28.952 0.379
2017-07-02 98% Germanys501st WIN 41 23 +171 27623 28.889 0.362
2017-06-29 97% Deutsch+Jedi WIN 37 31 +296 27397 28.700 0.372
2017-06-23 102% NEW_EMPIRE LOSS 17 45 +64 27508 28.800 0.369
2017-06-19 104% Str8OuttaChaos LOSS 8 32 +64 27549 28.847 0.371
2017-06-16 111% ShadyRebels24 LOSS 0 45 0 27759 28.847 0.311
2017-06-13 103% Clone_WAR LOSS 0 38 +7 27822 28.852 0.294
2017-06-09 103% EmPIRE LOSS 1 45 +7 28025 28.856 0.237
2017-06-06 99% Madridatope LOSS 9 45 +1 28094 28.939 0.241
2017-06-04 96% CANADIENREDNECK WIN 43 24 +69 28095 28.906 0.232
2017-06-01 102% 805th LOSS 9 44 +51 28074 28.972 0.257
2017-05-29 101% SithariRage LOSS 8 45 +5 28125 28.913 0.225
2017-05-27 100% deutsch=) LOSS 23 44 +12 28307 29.027 0.206
2017-05-23 101% Irreplacable WIN 40 21 +328 27979 28.892 0.261
2017-05-19 102% Dutch®Empire LOSS 6 45 0 28294 28.892 0.171
2017-05-16 100% German's-Alli.2 LOSS 19 45 -10 28409 29.126 0.205
2017-05-13 101% R.E.DHavoc LOSS 6 39 +18 28461 29.146 0.196
2017-05-10 99% Wicked3.0 WIN 44 18 +60 28471 29.129 0.188
2017-05-06 99% X-wing-marines WIN 23 13 +102 28579 29.089 0.146
2017-05-02 103% Deutsch-Aktiv LOSS 20 45 0 28649 29.089 0.126
2017-04-28 97% Deutsch++AltRep. WIN 33 20 +18 28841 29.073 0.066
2017-04-25 101% Holland LOSS 4 45 0 28876 29.073 0.056
2017-04-21 99% ALLIANCE111 WIN 44 0 0 29069 29.073 0.001
2017-04-17 100% Czech.rebels WIN 30 25 0 29069 29.073 0.001
2017-04-14 101% JAPAN[u]TROOPERS LOSS 33 44 0 29069 29.073 0.001
2017-04-11 100% DR3 LOSS 9 42 0 29069 29.073 0.001
2017-04-07 100% JawaOutpost WIN 44 35 +14 29055 29.059 0.001
2017-03-31 101% Edelstuten WIN 44 32 +13 29042 29.046 0.001
2017-03-28 101% DeltaSquadPrime LOSS 7 45 0 29042 29.046 0.001
2017-03-25 100% Darksidekings WIN 38 35 0 29042 29.046 0.001
2017-03-22 100% SithHappens23 WIN 31 28 0 29042 29.046 0.001
2017-03-19 97% maganqieen WIN 40 24 0 29042 29.046 0.001
2017-03-14 100% JeDi2 LOSS 22 37 0 29042 29.046 0.001
2017-03-11 99% Imperial_War_SQD WIN 36 29 0 29042 29.046 0.001
2017-03-08 103% SithForceElite LOSS 0 45 0 29042 29.046 0.001
2017-03-03 96% Quantum's_Nexus LOSS 9 41 0 29042 29.046 0.001
2017-02-28 100% Seattle4Vader WIN 32 17 0 29042 29.046 0.001
2017-02-23 101% SkywalkersMpire LOSS 32 35 0 29042 29.046 0.001
2017-02-20 106% AoW_WD LOSS 12 43 0 29042 29.046 0.001
2017-02-16 101% DONATIONS_HERE LOSS 8 35 0 29042 29.046 0.001
2017-02-13 101% RogueAlliance LOSS 11 45 0 29042 29.046 0.001
2017-02-11 101% Singapore_Jedi LOSS 28 37 0 29042 29.046 0.001
2017-02-08 100% Maxskywalker LOSS 25 30 -2 29044 29.051 0.002
2017-02-06 102% PartylikeaBantha LOSS 2 45 0 29044 29.051 0.002
2017-01-30 100% WarriorsUnite WIN 36 34 0 29044 29.050 0.002
2017-01-25 101% BlastersInSpace LOSS 25 30 0 29044 29.050 0.002
2017-01-22 100% Apex_Rebels WIN 43 33 +24 29020 29.029 0.003
2017-01-19 100% DonateOrNotToBe WIN 28 24 +64 28956 28.972 0.005
2017-01-14 100% Futuristicdragon LOSS 13 41 0 28956 28.972 0.005
2017-01-12 72% StrongOne WIN 40 12 0 28956 28.972 0.005
2017-01-09 98% Galaxy-Alliance1 LOSS 32 43 -363 29319 29.343 0.007
2017-01-06 100% R3B3LS-1 LOSS 6 45 -29 29348 29.380 0.009
2017-01-03 103% Italia-HanSolo LOSS 11 45 0 29348 29.380 0.009
2016-12-31 99% Magyar-Team-SM LOSS 26 41 -125 29473 29.531 0.017
2016-12-28 101% France★R3born LOSS 2 45 0 29473 29.531 0.017
2016-12-25 100% Jedi-diah LOSS 8 45 0 29473 29.531 0.017
2016-12-22 102% Dark+Rising LOSS 10 34 0 29473 29.531 0.017
2016-12-19 100% RebelsYell LOSS 31 45 0 29473 29.531 0.017
2016-12-17 101% Русские_победят LOSS 2 45 0 29473 29.531 0.017
2016-12-14 100% 420;) LOSS 28 34 -21 29494 29.564 0.020
2016-12-10 98% NW0 WIN 42 27 0 29494 29.564 0.020
2016-12-08 100% ImperialSnipers2 LOSS 21 45 -10 29504 29.594 0.026
2016-12-05 100% RebelsYell LOSS 40 44 +2 29502 29.599 0.028
2016-12-02 101% SamuraiHunters LOSS 13 43 0 29502 29.599 0.028
2016-11-27 58% JEDIMASTERS WIN 42 38 0 29502 29.599 0.028
2016-11-22 100% Crazyrebels1 WIN 45 44 +9 29493 29.595 0.029
2016-11-20 97% Realteal WIN 42 35 0 29493 29.595 0.029
2016-11-18 0% Texas_Battalion WIN 39 35 0 29493 29.595 0.029
2016-11-13 95% Rogue-Team WIN 45 25 0 29493 29.595 0.029
2016-11-11 100% USMC-VaderH8r's WIN 40 34 +68 29425 29.565 0.040
2016-11-07 119% Imperial_Enclave LOSS 1 45 0 29425 29.565 0.040
2016-11-04 99% 01Roguesquadron WIN 42 37 0 29425 29.565 0.040
2016-11-02 100% Rus-Squadron LOSS 12 45 0 29425 29.565 0.040
2016-10-31 99% Wolfpacknation LOSS 32 34 -1 29426 29.569 0.041
2016-10-29 101% Squad.x WIN 42 41 +205 29221 29.413 0.055
2016-10-26 100% SCOTLAND WIN 39 37 +53 29168 29.384 0.062
2016-10-23 101% Jedi⚽️⚽️⚽️ WIN 42 26 +257 28911 29.212 0.086
2016-10-20 99% motörhead4life WIN 45 34 +12 28899 29.208 0.088
2016-10-18 10% GrandviewMilitia WIN 43 9 0 28899 29.208 0.088
2016-10-15 95% Rebel'Army LOSS 42 43 -324 29223 29.594 0.106
2016-10-12 98% Canada'sDarkSide LOSS 23 36 -317 29540 30.133 0.169
2016-10-07 94% Lothaloutpost WIN 39 32 0 29540 30.133 0.169
2016-10-03 105% GalacticDONATERS WIN 38 36 +500 29040 29.704 0.190
2016-09-25 106% All-Business WIN 40 39 +1,353 27687 28.730 0.298
2016-09-21 92% BlueSaberJedi LOSS 14 45 -167 27854 28.992 0.325
2016-09-19 94% TheEpicChewbacca WIN 45 15 +19 27835 28.986 0.329
2016-09-15 103% Crazyrebels1 LOSS 37 39 +67 27768 29.051 0.367
2016-09-13 95% BattleRaxChaos LOSS 36 38 -261 28029 29.610 0.452
2016-09-10 92% RoguesofVader WIN 41 37 +8 28021 29.608 0.453
2016-09-04 113% R3B3LS-1 WIN 36 28 +1,436 26585 28.390 0.516
2016-08-27 102% Donate,Receive LOSS 26 45 +12 26573 28.411 0.525
2016-08-24 94% Donate-or-Out-2 WIN 43 42 +374 26199 28.108 0.545
2016-08-21 109% YodasMarines WIN 43 41 +2,131 24068 26.999 0.837
2016-08-11 92% TheSupremeSquad LOSS 40 44 -859 24927 29.367 1.269
2016-08-04 99% Dangerous777 WIN 43 33 +736 24191 29.153 1.418
2016-08-01 92% Deutsche-Falken2 LOSS 36 38 -410 24601 31.072 1.849
2016-07-29 43% RebelsXD WIN 37 29 0 24601 31.072 1.849
2016-07-25 68% German'Orion WIN 40 35 +823 23778 30.663 1.967
2016-07-23 94% 2ndCouncil WIN 44 43 +1,884 21894 29.890 2.284
2016-07-15 72% 4224army WIN 45 23 +602 21292 29.699 2.402
2016-07-12 165% Nick211 WIN 45 43 +8,049 13243 24.521 3.222
2016-07-09 84% BRAsil LOSS 39 41 -294 13537 27.832 4.084
2016-07-06 164% jedi_wraith LOSS 35 45 +514 13023 28.374 4.386
2016-07-01 135% TheForce'sHand LOSS 32 40 +840 12183 32.348 5.761
2016-06-27 86% DonateOrNotToBe WIN 34 31 +6,563 5620 29.702 6.880
2016-06-23 100% Diegeilen WIN 45 33 +5,620 0 25.000 8.333
*Note: Wars from before June 22nd 2016 are not included.